Time;durP1;ratioP1;P1;durP2;ratioP2;P2;SDS_P1;SDS_P2;PMS_P1;PMS_P2;Temp;Humidity;BMP_temperature;BMP_pressure;BME280_temperature;BME280_humidity;BME280_pressure;Samples;Min_cycle;Max_cycle;Signal;HPM_P1;HPM_P2
2023/11/04 00:01:36;;;;;;;1.42;0.90;;;24.10;51.20;;;;;;6179597;28;80926;-63
2023/11/04 00:04:36;;;;;;;1.58;1.00;;;24.10;51.10;;;;;;6179394;28;80344;-62
2023/11/04 00:07:37;;;;;;;1.75;1.15;;;24.10;51.10;;;;;;6178061;28;81837;-61
2023/11/04 00:10:38;;;;;;;2.20;0.73;;;24.10;51.40;;;;;;6177799;28;80198;-62
2023/11/04 00:13:38;;;;;;;0.93;0.73;;;24.10;51.40;;;;;;6179794;28;80325;-61
2023/11/04 00:16:39;;;;;;;2.30;0.82;;;24.10;51.40;;;;;;6179448;28;80379;-61
2023/11/04 00:19:39;;;;;;;1.65;1.00;;;24.10;51.40;;;;;;6178517;28;80590;-60
2023/11/04 00:22:40;;;;;;;1.80;0.93;;;24.10;51.10;;;;;;6179399;28;80127;-61
2023/11/04 00:25:40;;;;;;;1.17;0.82;;;24.10;51.00;;;;;;6179062;28;81060;-62
2023/11/04 00:28:41;;;;;;;3.33;1.13;;;24.10;51.00;;;;;;6178980;28;81687;-63
2023/11/04 00:31:42;;;;;;;2.00;0.73;;;24.10;51.20;;;;;;6147884;28;81356;-65
2023/11/04 00:34:42;;;;;;;0.80;0.80;;;24.10;51.20;;;;;;6179074;28;80774;-65
2023/11/04 00:37:43;;;;;;;1.67;0.75;;;24.20;51.10;;;;;;6176663;28;81952;-64
2023/11/04 00:40:44;;;;;;;2.20;1.00;;;24.20;51.00;;;;;;6177635;28;81328;-64
2023/11/04 00:43:44;;;;;;;0.90;0.70;;;24.10;51.10;;;;;;6176074;28;83118;-66
2023/11/04 00:46:45;;;;;;;0.93;0.70;;;24.10;51.10;;;;;;6178010;28;80723;-63
2023/11/04 00:49:45;;;;;;;0.75;0.70;;;24.10;51.00;;;;;;6178336;28;81503;-63
2023/11/04 00:52:46;;;;;;;0.82;0.80;;;24.10;51.00;;;;;;6177978;28;80965;-65
2023/11/04 00:55:46;;;;;;;0.70;0.70;;;24.10;50.90;;;;;;6177910;28;80493;-65
2023/11/04 00:58:47;;;;;;;1.98;1.00;;;24.10;50.90;;;;;;6177263;28;80328;-65
2023/11/04 01:01:48;;;;;;;0.82;0.73;;;24.10;50.80;;;;;;6178411;28;80362;-63
2023/11/04 01:04:48;;;;;;;1.35;0.73;;;24.10;50.90;;;;;;6175530;28;80996;-66
2023/11/04 01:07:49;;;;;;;0.88;0.60;;;24.10;51.10;;;;;;6174434;28;80778;-65
2023/11/04 01:10:49;;;;;;;1.38;1.15;;;24.10;51.00;;;;;;6173882;28;81864;-67
2023/11/04 01:13:50;;;;;;;1.35;0.90;;;24.10;50.90;;;;;;6173622;28;80452;-62
2023/11/04 01:16:50;;;;;;;1.95;0.95;;;24.10;51.10;;;;;;6172027;28;81786;-64
2023/11/04 01:19:51;;;;;;;1.30;0.73;;;24.10;50.90;;;;;;6175530;28;81668;-63
2023/11/04 01:22:51;;;;;;;0.63;0.60;;;24.10;50.80;;;;;;6178080;28;82619;-66
2023/11/04 01:25:52;;;;;;;1.25;0.80;;;24.10;50.80;;;;;;6176705;28;81518;-64
2023/11/04 01:28:52;;;;;;;2.88;0.57;;;24.00;50.70;;;;;;6177240;28;80596;-66
2023/11/04 01:31:53;;;;;;;1.02;0.60;;;24.00;50.80;;;;;;6174288;28;82005;-66
2023/11/04 01:34:54;;;;;;;1.05;0.85;;;24.00;50.80;;;;;;6171181;28;80694;-66
2023/11/04 01:37:54;;;;;;;1.00;0.90;;;24.00;50.90;;;;;;6190384;28;82084;-66
2023/11/04 01:40:55;;;;;;;2.17;0.80;;;24.00;51.40;;;;;;6176647;28;81526;-68
2023/11/04 01:43:55;;;;;;;2.58;1.20;;;24.00;51.10;;;;;;6183426;28;86187;-65
2023/11/04 01:46:56;;;;;;;0.85;0.60;;;24.00;51.10;;;;;;6177379;28;82151;-65
2023/11/04 01:49:56;;;;;;;0.88;0.70;;;24.00;51.00;;;;;;6175477;28;80942;-62
2023/11/04 01:52:57;;;;;;;0.70;0.70;;;24.00;50.90;;;;;;6175919;28;80727;-63
2023/11/04 01:55:58;;;;;;;1.58;0.90;;;24.00;50.90;;;;;;6176108;28;80407;-64
2023/11/04 01:58:59;;;;;;;0.50;0.50;;;24.00;50.90;;;;;;6186906;28;81771;-63
2023/11/04 02:01:59;;;;;;;1.15;0.95;;;24.00;50.90;;;;;;6193689;28;83203;-63
2023/11/04 02:05:00;;;;;;;0.90;0.60;;;24.00;50.80;;;;;;6177491;28;80938;-61
2023/11/04 02:08:00;;;;;;;1.00;0.60;;;24.00;50.90;;;;;;6182542;28;87560;-62
2023/11/04 02:11:01;;;;;;;0.57;0.52;;;24.00;50.90;;;;;;6174819;28;82775;-64
2023/11/04 02:14:01;;;;;;;0.88;0.60;;;24.00;50.90;;;;;;6174815;28;80621;-65
2023/11/04 02:17:02;;;;;;;0.90;0.60;;;24.00;50.80;;;;;;6176360;28;82952;-65
2023/11/04 02:20:02;;;;;;;1.10;0.70;;;24.00;50.70;;;;;;6176696;28;81120;-64
2023/11/04 02:23:03;;;;;;;0.75;0.50;;;24.00;50.70;;;;;;6175602;28;80896;-64
2023/11/04 02:26:03;;;;;;;1.10;0.70;;;24.00;50.70;;;;;;6175792;28;80701;-64
2023/11/04 02:29:04;;;;;;;0.60;0.60;;;24.00;50.70;;;;;;6175475;28;83074;-64
2023/11/04 02:32:04;;;;;;;0.90;0.55;;;24.00;50.70;;;;;;6173759;28;83542;-64
2023/11/04 02:35:05;;;;;;;1.00;0.82;;;23.90;50.50;;;;;;6176537;28;80887;-62
2023/11/04 02:38:05;;;;;;;0.68;0.43;;;24.00;50.60;;;;;;6174601;28;83103;-63
2023/11/04 02:41:06;;;;;;;1.45;0.77;;;24.00;50.50;;;;;;6175474;28;83597;-65
2023/11/04 02:44:07;;;;;;;0.60;0.60;;;24.00;50.70;;;;;;6176710;28;81059;-65
2023/11/04 02:47:07;;;;;;;0.80;0.68;;;24.00;50.80;;;;;;6167971;28;83134;-63
2023/11/04 02:50:08;;;;;;;1.88;1.15;;;24.00;50.80;;;;;;6178608;28;83076;-65
2023/11/04 02:53:08;;;;;;;1.17;0.75;;;24.00;50.80;;;;;;6178953;28;83919;-67
2023/11/04 02:56:09;;;;;;;0.90;0.60;;;24.00;50.80;;;;;;6178493;28;80885;-63
2023/11/04 02:59:10;;;;;;;1.10;0.70;;;24.00;50.80;;;;;;6171898;28;83484;-62
2023/11/04 03:02:10;;;;;;;1.35;0.70;;;24.00;51.00;;;;;;6180550;28;80462;-60
2023/11/04 03:05:11;;;;;;;0.45;0.45;;;24.00;50.80;;;;;;6180001;28;81423;-61
2023/11/04 03:08:11;;;;;;;2.08;0.63;;;24.00;50.70;;;;;;6179707;28;81600;-61
2023/11/04 03:11:13;;;;;;;0.73;0.63;;;24.00;50.70;;;;;;6179644;28;81451;-61
2023/11/04 03:14:13;;;;;;;1.20;0.55;;;24.00;50.70;;;;;;6180786;28;80505;-62
2023/11/04 03:17:14;;;;;;;1.10;0.60;;;24.00;50.70;;;;;;6180715;28;80685;-62
2023/11/04 03:20:15;;;;;;;3.58;0.60;;;24.00;50.70;;;;;;6178888;28;81656;-64
2023/11/04 03:23:15;;;;;;;0.65;0.50;;;23.90;50.60;;;;;;6179308;28;83210;-64
2023/11/04 03:26:18;;;;;;;0.63;0.57;;;23.90;50.70;;;;;;6179160;28;83598;-63
2023/11/04 03:29:19;;;;;;;0.93;0.50;;;23.90;50.60;;;;;;6178439;28;82691;-64
2023/11/04 03:32:19;;;;;;;1.48;0.50;;;23.90;50.50;;;;;;6179332;28;81004;-64
2023/11/04 03:35:20;;;;;;;0.73;0.70;;;23.90;50.40;;;;;;6179190;28;83230;-64
2023/11/04 03:38:21;;;;;;;0.80;0.50;;;23.80;50.30;;;;;;6179471;28;80732;-65
2023/11/04 03:41:22;;;;;;;0.40;0.40;;;23.90;50.40;;;;;;6179184;28;80965;-64
2023/11/04 03:44:23;;;;;;;0.75;0.68;;;23.90;50.50;;;;;;6179665;28;80586;-64
2023/11/04 03:47:24;;;;;;;0.70;0.60;;;23.90;50.30;;;;;;6178470;28;80624;-63
2023/11/04 03:50:25;;;;;;;0.98;0.57;;;23.90;50.30;;;;;;6179921;28;80650;-62
2023/11/04 03:53:25;;;;;;;0.77;0.50;;;23.90;50.30;;;;;;6179379;28;80322;-66
2023/11/04 03:56:26;;;;;;;1.00;0.65;;;23.90;50.20;;;;;;6177539;28;80788;-62
2023/11/04 03:59:26;;;;;;;0.65;0.50;;;23.90;50.30;;;;;;6175689;28;81516;-63
2023/11/04 04:02:27;;;;;;;0.63;0.60;;;23.90;50.20;;;;;;6178331;28;80615;-63
2023/11/04 04:05:27;;;;;;;0.70;0.70;;;23.90;50.20;;;;;;6179471;28;81505;-64
2023/11/04 04:08:28;;;;;;;0.63;0.47;;;23.80;50.20;;;;;;6180205;28;80923;-64
2023/11/04 04:11:28;;;;;;;0.60;0.50;;;23.80;50.20;;;;;;6178022;28;82816;-64
2023/11/04 04:14:29;;;;;;;0.75;0.57;;;23.90;50.10;;;;;;6178585;28;80908;-61
2023/11/04 04:17:29;;;;;;;1.65;0.68;;;23.90;50.20;;;;;;6178639;28;80716;-63
2023/11/04 04:20:30;;;;;;;0.52;0.52;;;23.80;50.10;;;;;;6178058;28;80360;-66
2023/11/04 04:23:30;;;;;;;2.15;0.60;;;23.90;50.00;;;;;;6178166;28;80344;-64
2023/11/04 04:26:31;;;;;;;1.63;0.70;;;23.90;50.20;;;;;;6177956;28;80927;-64
2023/11/04 04:29:31;;;;;;;0.63;0.52;;;23.90;50.60;;;;;;6178357;28;80872;-65
2023/11/04 04:32:32;;;;;;;0.80;0.63;;;23.90;50.30;;;;;;6088642;28;81854;-62
2023/11/04 04:35:32;;;;;;;1.45;0.85;;;23.90;50.30;;;;;;6053338;28;82090;-62
2023/11/04 04:38:33;;;;;;;0.73;0.50;;;23.90;50.30;;;;;;6034863;28;86222;-63
2023/11/04 04:41:33;;;;;;;0.88;0.60;;;24.00;50.20;;;;;;6050778;28;82176;-62
2023/11/04 04:44:34;;;;;;;0.80;0.77;;;24.00;49.90;;;;;;6036922;28;82217;-63
2023/11/04 04:47:37;;;;;;;1.65;0.77;;;24.00;49.90;;;;;;6054136;28;81664;-63
2023/11/04 04:50:37;;;;;;;1.23;0.50;;;24.00;49.90;;;;;;6054990;28;82253;-63
2023/11/04 04:53:38;;;;;;;1.73;0.60;;;24.00;49.80;;;;;;6054705;28;82142;-63
2023/11/04 04:56:38;;;;;;;0.52;0.52;;;24.10;49.90;;;;;;6050611;28;82133;-65
2023/11/04 04:59:39;;;;;;;0.75;0.60;;;24.10;49.80;;;;;;6047702;28;83786;-62
2023/11/04 05:02:40;;;;;;;1.10;0.60;;;24.10;49.60;;;;;;6051809;28;82391;-61
2023/11/04 05:05:40;;;;;;;1.40;0.60;;;24.10;49.60;;;;;;6046153;28;82952;-62
2023/11/04 05:08:41;;;;;;;0.77;0.70;;;24.10;49.70;;;;;;6049299;28;82250;-63
2023/11/04 05:11:41;;;;;;;0.68;0.60;;;24.20;49.70;;;;;;6051159;28;82340;-65
2023/11/04 05:14:42;;;;;;;0.65;0.57;;;24.20;49.80;;;;;;6048817;28;81743;-67
2023/11/04 05:17:42;;;;;;;0.75;0.75;;;24.20;50.00;;;;;;6052179;28;81868;-64
2023/11/04 05:20:43;;;;;;;0.60;0.60;;;24.20;49.70;;;;;;6050586;28;83363;-63
2023/11/04 05:23:43;;;;;;;0.77;0.55;;;24.20;49.90;;;;;;6052816;28;81622;-61
2023/11/04 05:26:45;;;;;;;0.90;0.50;;;24.20;50.00;;;;;;6053406;28;83352;-66
2023/11/04 05:29:46;;;;;;;0.82;0.70;;;24.30;51.00;;;;;;6051005;28;84213;-62
2023/11/04 05:32:46;;;;;;;0.70;0.60;;;24.20;50.70;;;;;;6050672;28;81502;-61
2023/11/04 05:35:47;;;;;;;0.93;0.60;;;24.20;50.40;;;;;;6053257;28;82107;-61
2023/11/04 05:38:47;;;;;;;0.90;0.50;;;24.20;50.30;;;;;;6054787;28;82855;-60
2023/11/04 05:41:48;;;;;;;2.40;0.90;;;24.10;47.40;;;;;;6051969;28;82210;-62
2023/11/04 05:44:49;;;;;;;2.75;0.50;;;24.10;47.20;;;;;;6048240;28;82037;-64
2023/11/04 05:47:49;;;;;;;1.23;0.50;;;24.10;47.80;;;;;;6049023;28;82626;-64
2023/11/04 05:50:50;;;;;;;1.15;0.70;;;24.10;47.60;;;;;;6052065;28;81343;-62
2023/11/04 05:53:51;;;;;;;14.02;1.00;;;24.10;47.80;;;;;;6052300;28;82208;-62
2023/11/04 05:56:51;;;;;;;15.35;1.30;;;24.20;48.50;;;;;;6052030;28;81486;-64
2023/11/04 05:59:52;;;;;;;2.67;0.70;;;24.20;48.70;;;;;;6053658;28;82277;-59
2023/11/04 06:02:53;;;;;;;4.38;0.95;;;24.20;49.10;;;;;;6045034;28;82305;-63
2023/11/04 06:05:55;;;;;;;4.80;1.00;;;24.20;48.90;;;;;;6050958;28;82174;-65
2023/11/04 06:08:56;;;;;;;5.65;1.17;;;24.10;50.10;;;;;;6050099;28;82354;-65
2023/11/04 06:11:56;;;;;;;4.88;1.00;;;24.10;49.30;;;;;;6055367;28;82184;-64
2023/11/04 06:14:57;;;;;;;4.53;0.93;;;24.20;49.90;;;;;;6052204;28;81802;-63
2023/11/04 06:17:57;;;;;;;4.03;0.98;;;24.20;49.90;;;;;;6038020;28;88156;-62
2023/11/04 06:20:58;;;;;;;5.20;0.75;;;24.30;50.60;;;;;;6020288;28;82862;-64
2023/11/04 06:23:58;;;;;;;2.15;0.85;;;24.30;50.40;;;;;;6038957;28;83895;-61
2023/11/04 06:26:59;;;;;;;2.20;1.08;;;24.30;50.90;;;;;;6040723;28;82359;-63
2023/11/04 06:29:59;;;;;;;1.73;0.98;;;24.30;51.00;;;;;;6051749;28;82288;-62
2023/11/04 06:33:02;;;;;;;3.40;0.88;;;24.30;50.40;;;;;;6050503;28;82248;-61
2023/11/04 06:36:03;;;;;;;5.70;1.35;;;24.40;50.90;;;;;;6052081;28;82130;-64
2023/11/04 06:39:04;;;;;;;4.93;1.10;;;24.40;51.00;;;;;;6047123;28;82164;-65
2023/11/04 06:42:05;;;;;;;1.10;0.70;;;24.40;51.20;;;;;;6046312;28;81172;-62
2023/11/04 06:45:06;;;;;;;3.03;0.80;;;24.40;51.10;;;;;;6050551;28;80377;-60
2023/11/04 06:48:06;;;;;;;3.33;1.02;;;24.40;50.80;;;;;;6052535;28;81657;-63
2023/11/04 06:51:07;;;;;;;3.78;1.00;;;24.40;51.00;;;;;;6053084;28;82171;-64
2023/11/04 06:54:08;;;;;;;6.75;1.10;;;24.50;51.00;;;;;;6049172;28;81589;-62
2023/11/04 06:57:08;;;;;;;7.53;0.90;;;24.40;51.00;;;;;;6047405;28;80636;-61
2023/11/04 07:00:11;;;;;;;3.83;0.95;;;24.40;51.00;;;;;;6052388;28;82361;-62
2023/11/04 07:03:11;;;;;;;2.30;0.90;;;24.50;51.00;;;;;;6053382;28;82010;-63
2023/11/04 07:06:12;;;;;;;1.92;0.82;;;24.50;50.70;;;;;;6048951;28;86712;-62
2023/11/04 07:09:13;;;;;;;2.85;0.90;;;24.50;50.60;;;;;;6054227;28;82613;-63
2023/11/04 07:12:14;;;;;;;3.90;0.80;;;24.60;50.70;;;;;;6055682;28;81943;-63
2023/11/04 07:15:14;;;;;;;2.63;1.23;;;24.60;50.60;;;;;;6025709;28;82141;-62
2023/11/04 07:18:17;;;;;;;3.83;1.48;;;24.60;50.60;;;;;;6033301;28;83570;-63
2023/11/04 07:21:19;;;;;;;1.10;0.75;;;24.60;50.30;;;;;;6035036;28;82298;-61
2023/11/04 07:24:20;;;;;;;6.55;1.35;;;24.50;50.40;;;;;;6031772;28;82165;-62
2023/11/04 07:27:20;;;;;;;4.03;1.00;;;24.50;50.00;;;;;;6032801;28;82253;-61
2023/11/04 07:30:21;;;;;;;3.08;1.00;;;24.50;50.00;;;;;;6032765;28;82134;-60
2023/11/04 07:33:21;;;;;;;2.92;1.50;;;24.50;49.90;;;;;;6034827;28;82851;-61
2023/11/04 07:36:22;;;;;;;4.35;0.90;;;24.60;50.50;;;;;;6041077;28;82481;-61
2023/11/04 07:39:22;;;;;;;4.65;1.13;;;24.60;50.30;;;;;;6040021;28;82485;-62
2023/11/04 07:42:23;;;;;;;4.05;1.13;;;24.60;50.30;;;;;;6035821;28;82409;-62
2023/11/04 07:45:23;;;;;;;3.97;1.13;;;24.60;50.20;;;;;;6038361;28;82305;-63
2023/11/04 07:48:24;;;;;;;5.22;1.30;;;24.60;50.40;;;;;;6034153;28;84933;-62
2023/11/04 07:51:25;;;;;;;2.22;1.02;;;24.60;50.40;;;;;;6032973;28;81257;-63
2023/11/04 07:54:26;;;;;;;4.22;0.90;;;24.60;50.30;;;;;;6034610;28;82341;-63
2023/11/04 07:57:26;;;;;;;4.15;1.35;;;24.60;50.30;;;;;;6036688;28;81934;-63
2023/11/04 08:00:27;;;;;;;10.23;1.00;;;24.60;50.60;;;;;;6040370;28;82992;-63
2023/11/04 08:03:28;;;;;;;8.52;0.82;;;24.60;50.60;;;;;;6035342;28;81828;-61
2023/11/04 08:06:28;;;;;;;6.18;1.33;;;24.60;50.30;;;;;;6034657;28;81464;-63
2023/11/04 08:09:29;;;;;;;9.05;1.33;;;24.60;50.60;;;;;;6037321;28;82540;-63
2023/11/04 08:12:29;;;;;;;3.10;1.00;;;24.60;50.00;;;;;;6032939;28;81714;-66
2023/11/04 08:15:30;;;;;;;5.25;1.00;;;24.60;50.00;;;;;;6037841;28;81949;-65
2023/11/04 08:18:31;;;;;;;3.42;1.00;;;24.70;49.80;;;;;;6034006;28;82025;-66
2023/11/04 08:21:32;;;;;;;3.95;1.35;;;24.70;49.80;;;;;;6033163;28;82380;-66
2023/11/04 08:24:32;;;;;;;3.60;1.00;;;24.70;49.40;;;;;;6035676;28;82139;-67
2023/11/04 08:27:33;;;;;;;4.50;1.30;;;24.70;49.60;;;;;;6035946;28;82408;-64
2023/11/04 08:30:34;;;;;;;4.60;1.52;;;24.70;49.70;;;;;;6035815;28;82411;-62
2023/11/04 08:33:35;;;;;;;7.00;1.50;;;24.70;49.70;;;;;;6032403;28;82949;-68
2023/11/04 08:36:35;;;;;;;7.15;1.85;;;24.70;49.50;;;;;;6027349;28;82059;-66
2023/11/04 08:39:36;;;;;;;6.63;1.27;;;24.70;50.80;;;;;;6053455;28;82320;-62
2023/11/04 08:42:36;;;;;;;6.07;1.35;;;24.60;45.90;;;;;;6053418;28;82604;-61
2023/11/04 08:45:37;;;;;;;2.05;1.05;;;24.40;43.80;;;;;;6054037;28;82207;-59
2023/11/04 08:48:38;;;;;;;2.55;1.00;;;24.30;43.10;;;;;;6053223;28;82207;-60
2023/11/04 08:51:38;;;;;;;5.93;1.50;;;24.10;42.20;;;;;;6052714;28;83718;-58
2023/11/04 08:54:42;;;;;;;2.80;1.05;;;23.60;41.00;;;;;;6049090;28;82227;-59
2023/11/04 08:57:44;;;;;;;2.75;1.15;;;23.30;41.30;;;;;;6150391;28;81370;-64
2023/11/04 09:00:46;;;;;;;3.15;1.13;;;23.30;42.10;;;;;;6176037;28;80784;-61
2023/11/04 09:03:47;;;;;;;3.38;1.10;;;23.20;41.80;;;;;;6176287;28;80280;-62
2023/11/04 09:06:47;;;;;;;5.68;1.42;;;23.20;42.30;;;;;;6163282;28;85962;-62
2023/11/04 09:09:48;;;;;;;5.03;1.10;;;22.90;41.10;;;;;;6161115;28;84708;-61
2023/11/04 09:12:48;;;;;;;3.72;1.08;;;22.60;41.80;;;;;;6174343;28;80721;-62
2023/11/04 09:15:49;;;;;;;2.00;1.10;;;22.70;42.20;;;;;;6174396;28;80912;-62
2023/11/04 09:18:49;;;;;;;4.80;1.02;;;22.80;41.70;;;;;;6161882;28;81004;-63
2023/11/04 09:21:51;;;;;;;2.42;1.30;;;22.60;41.20;;;;;;6170729;28;82309;-62
2023/11/04 09:24:52;;;;;;;1.70;1.17;;;22.70;41.30;;;;;;6172978;28;81003;-62
2023/11/04 09:27:53;;;;;;;2.15;1.23;;;22.20;40.50;;;;;;6174016;28;81024;-65
2023/11/04 09:30:54;;;;;;;1.75;1.17;;;21.60;41.80;;;;;;6173274;28;84123;-65
2023/11/04 09:33:55;;;;;;;4.63;1.15;;;21.90;42.10;;;;;;6173630;28;80314;-65
2023/11/04 09:36:55;;;;;;;1.63;1.00;;;22.00;41.50;;;;;;6177558;28;80494;-64
2023/11/04 09:39:56;;;;;;;3.30;1.63;;;22.30;41.40;;;;;;6176748;28;80607;-64
2023/11/04 09:42:56;;;;;;;2.22;1.20;;;22.30;42.10;;;;;;6177068;28;80226;-64
2023/11/04 09:45:57;;;;;;;3.92;0.88;;;22.40;42.40;;;;;;6177840;28;80202;-64
2023/11/04 09:48:59;;;;;;;1.50;1.05;;;22.50;42.20;;;;;;6178642;28;81678;-63
2023/11/04 09:51:59;;;;;;;3.80;1.42;;;22.70;43.00;;;;;;6177480;28;80610;-64
2023/11/04 09:55:00;;;;;;;1.50;1.00;;;22.70;42.10;;;;;;6177369;28;81001;-63
2023/11/04 09:58:00;;;;;;;2.13;1.30;;;22.70;41.50;;;;;;6175696;28;80279;-63
2023/11/04 10:01:01;;;;;;;3.22;1.50;;;22.70;42.10;;;;;;6176658;28;81026;-64
2023/11/04 10:04:02;;;;;;;1.92;1.00;;;22.80;42.70;;;;;;6176860;28;80510;-65
2023/11/04 10:07:02;;;;;;;1.85;1.00;;;22.90;42.40;;;;;;6176435;28;80359;-62
2023/11/04 10:10:03;;;;;;;2.42;1.10;;;22.90;43.10;;;;;;6163689;28;81258;-61
2023/11/04 10:13:04;;;;;;;1.73;0.98;;;22.80;41.70;;;;;;6176751;28;80249;-61
2023/11/04 10:16:05;;;;;;;11.63;1.45;;;22.60;41.30;;;;;;6175198;28;80736;-62
2023/11/04 10:19:05;;;;;;;6.20;1.30;;;22.50;41.20;;;;;;6155758;28;81858;-64
2023/11/04 10:22:06;;;;;;;2.85;1.73;;;22.60;42.60;;;;;;6166852;28;80450;-65
2023/11/04 10:25:10;;;;;;;5.53;1.52;;;22.70;42.60;;;;;;6104016;28;85509;-65
2023/11/04 10:28:12;;;;;;;2.08;1.25;;;22.90;43.00;;;;;;6166385;28;81582;-64
2023/11/04 10:31:12;;;;;;;9.88;1.30;;;23.00;43.00;;;;;;6173177;28;80360;-65
2023/11/04 10:34:13;;;;;;;6.28;1.52;;;23.10;43.40;;;;;;6146149;28;82105;-65
2023/11/04 10:37:13;;;;;;;4.72;1.35;;;23.10;44.20;;;;;;6156737;28;81158;-66
2023/11/04 10:40:14;;;;;;;5.50;1.60;;;23.20;43.70;;;;;;6125047;28;82530;-65
2023/11/04 10:43:14;;;;;;;4.15;1.35;;;23.30;43.90;;;;;;6136371;28;83425;-65
2023/11/04 10:46:15;;;;;;;3.08;1.65;;;23.40;44.50;;;;;;6137984;28;81669;-62
2023/11/04 10:49:15;;;;;;;6.28;1.70;;;23.50;46.20;;;;;;6133574;28;83057;-64
2023/11/04 10:52:16;;;;;;;4.80;1.88;;;23.50;47.70;;;;;;6134374;28;83521;-63
2023/11/04 10:55:16;;;;;;;9.00;2.55;;;23.60;47.70;;;;;;6133293;28;84655;-63
2023/11/04 10:58:18;;;;;;;3.65;2.17;;;23.70;48.10;;;;;;6135359;28;82058;-61
2023/11/04 11:01:18;;;;;;;5.72;2.67;;;23.80;48.20;;;;;;6137149;28;82713;-63
2023/11/04 11:04:19;;;;;;;5.78;2.90;;;23.90;48.50;;;;;;6133536;28;81994;-62
2023/11/04 11:07:20;;;;;;;4.15;2.70;;;24.00;49.00;;;;;;6138207;28;81058;-62
2023/11/04 11:10:20;;;;;;;7.15;2.83;;;24.10;48.40;;;;;;6159227;28;86037;-60
2023/11/04 11:13:21;;;;;;;6.20;1.90;;;24.30;48.50;;;;;;6159662;28;84651;-59
2023/11/04 11:16:21;;;;;;;10.45;2.20;;;24.40;48.10;;;;;;6168283;28;83103;-62
2023/11/04 11:19:22;;;;;;;4.18;1.70;;;24.50;47.80;;;;;;6171664;28;85291;-62
2023/11/04 11:22:25;;;;;;;4.88;1.63;;;24.20;38.20;;;;;;6155566;28;89074;-67
2023/11/04 11:25:26;;;;;;;4.03;1.40;;;24.40;43.80;;;;;;6163427;28;80369;-60
2023/11/04 11:28:26;;;;;;;3.13;1.25;;;24.50;42.80;;;;;;6170365;28;84421;-64
2023/11/04 11:31:28;;;;;;;3.28;1.42;;;24.60;41.40;;;;;;6172930;28;80732;-68
2023/11/04 11:34:28;;;;;;;1.73;1.15;;;24.60;40.30;;;;;;6173768;28;82685;-70
2023/11/04 11:37:29;;;;;;;1.60;1.17;;;24.60;38.10;;;;;;6172828;28;80476;-65
2023/11/04 11:40:29;;;;;;;2.60;1.30;;;24.20;37.50;;;;;;6174257;28;81151;-67
2023/11/04 11:43:30;;;;;;;4.35;1.17;;;24.30;37.10;;;;;;6174340;28;80921;-70
2023/11/04 11:46:30;;;;;;;1.15;0.90;;;24.40;37.60;;;;;;6174071;28;83123;-70
2023/11/04 11:49:31;;;;;;;6.32;1.30;;;24.60;37.30;;;;;;6176468;28;80528;-67
2023/11/04 11:52:32;;;;;;;3.65;1.42;;;24.70;37.70;;;;;;6175760;28;80127;-69
2023/11/04 11:55:32;;;;;;;2.13;1.30;;;24.90;37.60;;;;;;6175641;28;80722;-59
2023/11/04 11:58:33;;;;;;;4.43;1.77;;;24.90;37.20;;;;;;6175474;28;80370;-59
2023/11/04 12:01:33;;;;;;;4.15;1.77;;;25.00;37.20;;;;;;6176899;28;80522;-57
2023/11/04 12:04:34;;;;;;;4.88;1.88;;;25.10;37.00;;;;;;6167252;28;80800;-56
2023/11/04 12:07:34;;;;;;;3.75;2.17;;;25.10;37.10;;;;;;6153041;28;84899;-57
2023/11/04 12:10:35;;;;;;;3.25;1.50;;;25.00;37.30;;;;;;6157030;28;81319;-57
2023/11/04 12:13:35;;;;;;;5.03;1.90;;;25.00;38.10;;;;;;6155712;28;81626;-65
2023/11/04 12:16:36;;;;;;;4.88;1.67;;;25.00;38.40;;;;;;6156496;28;81377;-63
2023/11/04 12:19:37;;;;;;;10.43;2.30;;;25.10;38.90;;;;;;6158167;28;81676;-67
2023/11/04 12:22:37;;;;;;;7.10;1.77;;;25.10;39.20;;;;;;6159046;28;82682;-63
2023/11/04 12:25:38;;;;;;;14.80;1.95;;;25.10;39.10;;;;;;6159977;28;82031;-66
2023/11/04 12:28:38;;;;;;;31.17;2.50;;;25.20;39.20;;;;;;6156083;28;81647;-67
2023/11/04 12:31:40;;;;;;;4.90;1.60;;;25.20;39.10;;;;;;6157653;28;81801;-70
2023/11/04 12:34:41;;;;;;;4.72;1.50;;;25.20;39.20;;;;;;6160110;28;81576;-64
2023/11/04 12:37:41;;;;;;;11.75;1.92;;;25.30;39.10;;;;;;6156124;28;82640;-69
2023/11/04 12:40:42;;;;;;;14.65;1.92;;;25.20;38.70;;;;;;6161641;28;81233;-67
2023/11/04 12:43:43;;;;;;;7.72;2.22;;;25.20;38.10;;;;;;6159395;28;82480;-72
2023/11/04 12:46:43;;;;;;;9.10;2.05;;;25.30;38.40;;;;;;6153956;28;82367;-73
2023/11/04 12:49:44;;;;;;;5.13;1.90;;;25.30;37.70;;;;;;6166773;28;81116;-61
2023/11/04 12:52:44;;;;;;;5.75;2.03;;;25.50;38.30;;;;;;6177187;28;80540;-61
2023/11/04 12:55:45;;;;;;;3.63;2.05;;;25.50;38.00;;;;;;6178783;28;80269;-63
2023/11/04 12:58:45;;;;;;;4.43;1.40;;;25.50;37.50;;;;;;6180293;28;81964;-60
2023/11/04 13:01:46;;;;;;;2.47;1.40;;;25.50;38.10;;;;;;6176560;28;80742;-63
2023/11/04 13:04:46;;;;;;;6.97;1.40;;;25.50;38.60;;;;;;6175742;28;81068;-64
2023/11/04 13:07:47;;;;;;;5.28;1.60;;;25.40;38.40;;;;;;6174687;28;82373;-67
2023/11/04 13:10:48;;;;;;;4.88;1.63;;;25.40;38.00;;;;;;6175363;28;80776;-60
2023/11/04 13:13:48;;;;;;;3.63;2.47;;;25.30;37.90;;;;;;6170468;28;83647;-59
2023/11/04 13:16:49;;;;;;;9.68;2.40;;;25.20;37.10;;;;;;6172799;28;80433;-59
2023/11/04 13:19:49;;;;;;;4.38;2.30;;;25.20;37.70;;;;;;6172590;28;83397;-60
2023/11/04 13:22:50;;;;;;;7.07;2.38;;;25.20;38.30;;;;;;6174296;28;81615;-60
2023/11/04 13:25:50;;;;;;;4.82;2.20;;;25.20;38.80;;;;;;6174642;28;80131;-59
2023/11/04 13:28:51;;;;;;;4.68;2.20;;;25.10;38.50;;;;;;6173108;28;80450;-70
2023/11/04 13:31:51;;;;;;;2.45;1.58;;;25.10;37.60;;;;;;6173901;28;80348;-65
2023/11/04 13:34:51;;;;;;;5.40;2.58;;;25.00;38.30;;;;;;6177685;28;80239;-66
2023/11/04 13:37:53;;;;;;;4.95;2.35;;;24.80;38.40;;;;;;6177682;28;80035;-66
2023/11/04 13:40:53;;;;;;;5.53;2.55;;;24.70;38.50;;;;;;6176520;28;83456;-68
2023/11/04 13:43:54;;;;;;;3.78;2.17;;;24.60;39.30;;;;;;6174176;28;80557;-65
2023/11/04 13:46:54;;;;;;;4.82;2.50;;;24.60;40.20;;;;;;6177118;28;80821;-68
2023/11/04 13:49:55;;;;;;;5.20;2.10;;;24.60;40.40;;;;;;6171028;28;80433;-69
2023/11/04 13:52:55;;;;;;;4.60;2.20;;;24.40;40.60;;;;;;6171731;28;84369;-69
2023/11/04 13:55:56;;;;;;;4.75;2.80;;;24.30;39.90;;;;;;6145494;28;87616;-65
2023/11/04 13:58:56;;;;;;;7.20;2.80;;;24.10;39.10;;;;;;6148449;28;83749;-69
2023/11/04 14:01:57;;;;;;;7.20;2.75;;;24.00;39.30;;;;;;6151627;28;80667;-68
2023/11/04 14:05:00;;;;;;;7.07;3.45;;;23.90;39.80;;;;;;6152416;28;83036;-68
2023/11/04 14:08:01;;;;;;;9.90;4.43;;;23.80;39.70;;;;;;6152401;28;83666;-68
2023/11/04 14:11:02;;;;;;;11.13;5.53;;;23.80;39.90;;;;;;6144092;28;80427;-69
2023/11/04 14:14:02;;;;;;;10.65;5.18;;;23.70;40.20;;;;;;6152323;28;84390;-75
2023/11/04 14:17:02;;;;;;;8.20;4.50;;;23.70;40.40;;;;;;6153441;28;83488;-71
2023/11/04 14:20:03;;;;;;;8.25;4.03;;;23.70;40.60;;;;;;6150191;28;80845;-69
2023/11/04 14:23:04;;;;;;;9.30;4.57;;;23.70;40.70;;;;;;6151711;28;80614;-58
2023/11/04 14:26:05;;;;;;;11.50;4.82;;;23.80;41.00;;;;;;6146872;28;81088;-59
2023/11/04 14:29:05;;;;;;;10.35;4.28;;;23.80;41.30;;;;;;6146122;28;86101;-56
2023/11/04 14:32:07;;;;;;;9.93;4.07;;;23.90;41.60;;;;;;6143733;28;81361;-59
2023/11/04 14:35:08;;;;;;;10.20;4.32;;;23.90;41.80;;;;;;6153491;28;81227;-61
2023/11/04 14:38:09;;;;;;;6.70;3.47;;;23.90;41.60;;;;;;6153289;28;80396;-58
2023/11/04 14:41:10;;;;;;;7.20;3.88;;;23.90;41.50;;;;;;6151437;28;81390;-59
2023/11/04 14:44:10;;;;;;;12.07;3.78;;;23.90;42.20;;;;;;6148299;28;80340;-54
2023/11/04 14:47:11;;;;;;;8.98;3.95;;;24.00;42.90;;;;;;6152656;28;80218;-48
2023/11/04 14:50:12;;;;;;;6.30;3.60;;;24.00;42.80;;;;;;6152594;28;80586;-55
2023/11/04 14:53:12;;;;;;;7.72;3.75;;;24.00;43.00;;;;;;6151871;28;81382;-60
2023/11/04 14:56:13;;;;;;;14.68;4.43;;;24.10;43.10;;;;;;6149068;28;82918;-60
2023/11/04 14:59:14;;;;;;;11.27;5.95;;;24.00;42.50;;;;;;6150278;28;81047;-60
2023/11/04 15:02:14;;;;;;;11.70;4.65;;;23.80;40.40;;;;;;6150021;28;81730;-60
2023/11/04 15:05:15;;;;;;;9.55;4.80;;;23.70;42.20;;;;;;6149741;28;80341;-59
2023/11/04 15:08:16;;;;;;;10.57;4.82;;;23.70;42.20;;;;;;6146679;28;80429;-60
2023/11/04 15:11:16;;;;;;;7.85;4.55;;;23.80;42.50;;;;;;6149323;28;83363;-60
2023/11/04 15:14:17;;;;;;;13.23;5.20;;;23.80;42.60;;;;;;6150053;28;80463;-60
2023/11/04 15:17:17;;;;;;;7.97;4.70;;;23.80;42.80;;;;;;6147915;28;80431;-64
2023/11/04 15:20:18;;;;;;;8.68;4.97;;;23.80;42.70;;;;;;6148076;28;80244;-62
2023/11/04 15:23:18;;;;;;;7.68;4.68;;;23.90;42.60;;;;;;6149135;28;80375;-63
2023/11/04 15:26:20;;;;;;;7.20;4.50;;;23.80;42.70;;;;;;6150740;28;80486;-63
2023/11/04 15:29:21;;;;;;;13.93;4.93;;;23.90;42.70;;;;;;6147726;28;85288;-63
2023/11/04 15:32:21;;;;;;;9.98;4.55;;;23.90;43.00;;;;;;6149303;28;82612;-62
2023/11/04 15:35:23;;;;;;;22.13;6.22;;;23.90;43.40;;;;;;6149661;28;81008;-62
2023/11/04 15:38:24;;;;;;;11.65;5.68;;;24.00;43.50;;;;;;6150572;28;80513;-61